Time;durP1;ratioP1;P1;durP2;ratioP2;P2;SDS_P1;SDS_P2;PMS_P1;PMS_P2;Temp;Humidity;BMP_temperature;BMP_pressure;BME280_temperature;BME280_humidity;BME280_pressure;Samples;Min_cycle;Max_cycle;Signal;HPM_P1;HPM_P2
2023/06/22 00:01:51;;;;;;;11.13;5.13;;;19.60;99.90;;;;;;4988645;28;20125;-80
2023/06/22 00:04:16;;;;;;;11.75;5.32;;;19.60;99.90;;;;;;4990103;28;20113;-79
2023/06/22 00:06:42;;;;;;;12.02;5.35;;;19.50;99.90;;;;;;4988905;28;20041;-79
2023/06/22 00:09:07;;;;;;;12.45;5.25;;;19.50;99.90;;;;;;4990716;28;20125;-79
2023/06/22 00:11:33;;;;;;;10.00;5.10;;;19.50;99.90;;;;;;4989969;28;20026;-79
2023/06/22 00:13:59;;;;;;;12.23;5.75;;;19.50;99.90;;;;;;4990357;28;20498;-79
2023/06/22 00:16:25;;;;;;;13.13;5.72;;;19.40;99.90;;;;;;4989261;28;20037;-79
2023/06/22 00:18:50;;;;;;;11.68;5.03;;;19.40;99.90;;;;;;4989310;28;20021;-79
2023/06/22 00:21:16;;;;;;;12.27;5.47;;;19.40;99.90;;;;;;4989083;28;20038;-79
2023/06/22 00:23:43;;;;;;;11.10;5.30;;;19.40;99.90;;;;;;4988889;28;20118;-79
2023/06/22 00:26:08;;;;;;;8.40;4.97;;;19.40;99.90;;;;;;4989475;28;21104;-79
2023/06/22 00:28:34;;;;;;;11.25;5.28;;;19.40;99.90;;;;;;4989627;28;20030;-80
2023/06/22 00:31:00;;;;;;;13.25;5.90;;;19.40;99.90;;;;;;4989063;28;20026;-80
2023/06/22 00:33:26;;;;;;;10.35;4.93;;;19.30;99.90;;;;;;4988644;28;20060;-80
2023/06/22 00:35:53;;;;;;;11.90;5.43;;;19.30;99.90;;;;;;4988067;28;20026;-79
2023/06/22 00:38:19;;;;;;;10.43;5.47;;;19.30;99.90;;;;;;4988877;28;20033;-79
2023/06/22 00:40:45;;;;;;;12.98;4.75;;;19.30;99.90;;;;;;4989025;28;20033;-80
2023/06/22 00:43:11;;;;;;;8.73;4.63;;;19.30;99.90;;;;;;4990319;28;20034;-80
2023/06/22 00:45:36;;;;;;;10.05;4.78;;;19.30;99.90;;;;;;4989515;28;20041;-80
2023/06/22 00:48:03;;;;;;;8.18;4.82;;;19.30;99.90;;;;;;4988622;28;20034;-80
2023/06/22 00:50:35;;;;;;;13.85;5.30;;;19.30;99.90;;;;;;4988830;28;20030;-79
2023/06/22 00:53:08;;;;;;;11.82;5.50;;;19.30;99.90;;;;;;4988989;28;20038;-79
2023/06/22 00:55:38;;;;;;;11.80;5.38;;;19.30;99.90;;;;;;4988425;28;20414;-79
2023/06/22 00:58:07;;;;;;;9.60;4.38;;;19.30;99.90;;;;;;4989664;28;20045;-79
2023/06/22 01:00:33;;;;;;;11.95;4.78;;;19.20;99.90;;;;;;4988264;28;20325;-79
2023/06/22 01:02:59;;;;;;;11.75;4.93;;;19.20;99.90;;;;;;4988107;28;20041;-79
2023/06/22 01:05:24;;;;;;;11.52;4.57;;;19.30;99.90;;;;;;4988606;28;20041;-79
2023/06/22 01:08:11;;;;;;;10.43;4.95;;;19.30;99.90;;;;;;4988290;28;20114;-79
2023/06/22 01:10:41;;;;;;;15.10;5.15;;;19.30;99.90;;;;;;4988942;28;20018;-79
2023/06/22 01:13:25;;;;;;;7.60;4.47;;;19.40;99.90;;;;;;4987749;28;20056;-79
2023/06/22 01:15:59;;;;;;;12.20;4.60;;;19.40;99.90;;;;;;4988479;28;20036;-79
2023/06/22 01:18:28;;;;;;;12.32;4.80;;;19.40;99.90;;;;;;4988386;28;20705;-79
2023/06/22 01:20:57;;;;;;;10.15;4.55;;;19.40;99.90;;;;;;4988504;28;20064;-79
2023/06/22 01:23:35;;;;;;;12.70;4.95;;;19.50;99.90;;;;;;4988368;28;20037;-79
2023/06/22 01:26:18;;;;;;;9.45;4.55;;;19.50;99.90;;;;;;4986656;28;20113;-79
2023/06/22 01:28:49;;;;;;;10.25;4.70;;;19.40;99.90;;;;;;4988230;28;20072;-79
2023/06/22 01:31:24;;;;;;;10.07;4.95;;;19.50;99.90;;;;;;4987104;28;20034;-79
2023/06/22 01:33:59;;;;;;;8.60;4.53;;;19.50;99.90;;;;;;4987619;28;20037;-79
2023/06/22 01:36:26;;;;;;;10.70;5.03;;;19.50;99.90;;;;;;4987256;28;20072;-79
2023/06/22 01:38:53;;;;;;;10.00;4.57;;;19.50;99.90;;;;;;4986525;28;20042;-79
2023/06/22 01:41:20;;;;;;;10.82;4.80;;;19.40;99.90;;;;;;4986615;28;20034;-79
2023/06/22 01:43:47;;;;;;;11.35;4.70;;;19.40;99.90;;;;;;4987245;28;20050;-79
2023/06/22 01:46:13;;;;;;;10.10;4.28;;;19.40;99.90;;;;;;4986113;28;20034;-79
2023/06/22 01:48:39;;;;;;;10.10;4.93;;;19.40;99.90;;;;;;4987752;28;20355;-79
2023/06/22 01:51:05;;;;;;;11.57;4.88;;;19.30;99.90;;;;;;4987470;28;20043;-79
2023/06/22 01:53:31;;;;;;;17.00;7.35;;;19.30;99.90;;;;;;4986833;28;20072;-79
2023/06/22 01:55:57;;;;;;;11.13;5.85;;;19.30;99.90;;;;;;4986646;28;20034;-79
2023/06/22 01:58:26;;;;;;;10.55;4.95;;;19.20;99.90;;;;;;4987529;28;20038;-79
2023/06/22 02:01:05;;;;;;;10.77;5.28;;;19.20;99.90;;;;;;4985880;28;20037;-78
2023/06/22 02:03:36;;;;;;;11.30;5.07;;;19.20;99.90;;;;;;4987385;28;20052;-79
2023/06/22 02:06:06;;;;;;;11.55;4.85;;;19.10;99.90;;;;;;4986438;28;20148;-79
2023/06/22 02:08:41;;;;;;;12.27;5.38;;;19.10;99.90;;;;;;4987950;28;20022;-79
2023/06/22 02:11:09;;;;;;;12.25;5.20;;;19.00;99.90;;;;;;4987221;28;21398;-79
2023/06/22 02:13:36;;;;;;;13.07;5.45;;;19.00;99.90;;;;;;4987005;28;20040;-79
2023/06/22 02:16:02;;;;;;;9.77;4.80;;;18.90;99.90;;;;;;4986538;28;20057;-79
2023/06/22 02:18:28;;;;;;;10.43;5.13;;;18.90;99.90;;;;;;4987457;28;20462;-79
2023/06/22 02:20:53;;;;;;;10.13;4.35;;;18.80;99.90;;;;;;4987520;28;20042;-79
2023/06/22 02:23:19;;;;;;;11.27;4.82;;;18.80;99.90;;;;;;4987149;28;20030;-79
2023/06/22 02:25:45;;;;;;;10.85;5.25;;;18.80;99.90;;;;;;4986552;28;20133;-79
2023/06/22 02:28:11;;;;;;;9.88;5.15;;;18.70;99.90;;;;;;4986755;28;20442;-79
2023/06/22 02:30:37;;;;;;;9.30;4.97;;;18.70;99.90;;;;;;4986560;28;20037;-79
2023/06/22 02:33:02;;;;;;;9.55;5.38;;;18.60;99.90;;;;;;4986014;28;20112;-79
2023/06/22 02:35:31;;;;;;;9.02;5.30;;;18.50;99.90;;;;;;4986984;28;20909;-79
2023/06/22 02:37:59;;;;;;;12.15;5.60;;;18.50;99.90;;;;;;4986828;28;20025;-79
2023/06/22 02:40:25;;;;;;;10.63;5.30;;;18.50;99.90;;;;;;4987189;28;20050;-79
2023/06/22 02:42:50;;;;;;;9.35;5.30;;;18.50;99.90;;;;;;4987024;28;20053;-80
2023/06/22 02:45:16;;;;;;;9.27;6.03;;;18.40;99.90;;;;;;4986042;28;20040;-79
2023/06/22 02:47:41;;;;;;;8.52;5.70;;;18.40;99.90;;;;;;4986043;28;20049;-79
2023/06/22 02:50:07;;;;;;;12.13;6.10;;;18.30;99.90;;;;;;4987345;28;20037;-79
2023/06/22 02:52:33;;;;;;;12.35;6.50;;;18.30;99.90;;;;;;4985635;28;20053;-79
2023/06/22 02:54:59;;;;;;;9.63;6.22;;;18.30;99.90;;;;;;4986674;28;20018;-78
2023/06/22 02:57:24;;;;;;;13.73;6.03;;;18.30;99.90;;;;;;4986618;28;20089;-79
2023/06/22 02:59:50;;;;;;;10.35;6.05;;;18.30;99.90;;;;;;4987087;28;20026;-79
2023/06/22 03:02:16;;;;;;;12.90;6.32;;;18.20;99.90;;;;;;4987220;28;20046;-79
2023/06/22 03:04:42;;;;;;;15.00;6.93;;;18.20;99.90;;;;;;4986767;28;20045;-79
2023/06/22 03:07:08;;;;;;;9.73;6.40;;;18.20;99.90;;;;;;4986318;28;20042;-78
2023/06/22 03:09:33;;;;;;;12.80;6.25;;;18.10;99.90;;;;;;4986653;28;20037;-79
2023/06/22 03:11:59;;;;;;;12.40;6.18;;;18.10;99.90;;;;;;4988435;28;20022;-79
2023/06/22 03:14:24;;;;;;;10.25;6.32;;;18.10;99.90;;;;;;4990327;28;20022;-79
2023/06/22 03:16:50;;;;;;;10.35;6.18;;;18.00;99.90;;;;;;4989713;28;20044;-79
2023/06/22 03:19:16;;;;;;;9.55;6.00;;;18.00;99.90;;;;;;4990155;28;20034;-79
2023/06/22 03:21:42;;;;;;;13.05;7.18;;;18.00;99.90;;;;;;4990347;28;20038;-79
2023/06/22 03:24:07;;;;;;;13.25;7.50;;;18.00;99.90;;;;;;4989811;28;20037;-78
2023/06/22 03:26:34;;;;;;;12.80;7.10;;;17.90;99.90;;;;;;4989508;28;20420;-78
2023/06/22 03:29:00;;;;;;;12.45;7.03;;;17.90;99.90;;;;;;4988912;28;20034;-78
2023/06/22 03:31:25;;;;;;;15.65;7.28;;;17.90;99.90;;;;;;4990085;28;20442;-79
2023/06/22 03:33:51;;;;;;;13.55;6.57;;;17.90;99.90;;;;;;4988573;28;20030;-79
2023/06/22 03:36:20;;;;;;;10.30;5.70;;;17.90;99.90;;;;;;4989108;28;20049;-78
2023/06/22 03:38:49;;;;;;;12.07;6.05;;;17.90;99.90;;;;;;4989740;28;20028;-79
2023/06/22 03:41:15;;;;;;;12.57;6.70;;;17.90;99.90;;;;;;4989455;28;20538;-78
2023/06/22 03:43:41;;;;;;;9.75;6.32;;;17.90;99.90;;;;;;4989579;28;20023;-79
2023/06/22 03:46:07;;;;;;;11.95;6.95;;;17.90;99.90;;;;;;4988344;28;20054;-79
2023/06/22 03:48:32;;;;;;;12.13;7.00;;;17.90;99.90;;;;;;4988466;28;20506;-78
2023/06/22 03:51:00;;;;;;;13.38;7.03;;;17.90;99.90;;;;;;4989682;28;20056;-79
2023/06/22 03:53:25;;;;;;;13.98;7.15;;;17.90;99.90;;;;;;4989738;28;20030;-78
2023/06/22 03:55:51;;;;;;;10.60;6.80;;;17.80;99.90;;;;;;4988523;28;20048;-78
2023/06/22 03:58:19;;;;;;;14.02;6.90;;;17.80;99.90;;;;;;4988631;28;20038;-78
2023/06/22 04:00:48;;;;;;;12.57;7.07;;;17.90;99.90;;;;;;4988309;28;20045;-79
2023/06/22 04:03:14;;;;;;;15.95;7.25;;;17.90;99.90;;;;;;4988495;28;20042;-79
2023/06/22 04:05:40;;;;;;;13.27;7.03;;;17.80;99.90;;;;;;4987890;28;20860;-79
2023/06/22 04:08:06;;;;;;;13.18;6.72;;;17.80;99.90;;;;;;4988333;28;20046;-79
2023/06/22 04:10:32;;;;;;;15.05;7.25;;;17.80;99.90;;;;;;4985406;28;20511;-79
2023/06/22 04:12:58;;;;;;;12.07;6.90;;;17.90;99.90;;;;;;4987796;28;20122;-79
2023/06/22 04:15:23;;;;;;;13.60;7.10;;;17.90;99.90;;;;;;4987890;28;20495;-79
2023/06/22 04:17:49;;;;;;;16.08;6.80;;;17.90;99.90;;;;;;4988393;28;20079;-78
2023/06/22 04:20:14;;;;;;;13.63;7.22;;;18.00;99.90;;;;;;4989515;28;20072;-79
2023/06/22 04:22:40;;;;;;;11.27;6.85;;;18.00;99.90;;;;;;4987587;28;20022;-79
2023/06/22 04:25:09;;;;;;;13.63;7.35;;;18.10;99.90;;;;;;4989086;28;20080;-79
2023/06/22 04:27:40;;;;;;;14.52;7.40;;;18.10;99.90;;;;;;4988362;28;20069;-79
2023/06/22 04:30:07;;;;;;;17.08;7.28;;;18.10;99.90;;;;;;4988095;28;20503;-78
2023/06/22 04:32:35;;;;;;;13.98;7.32;;;18.20;99.90;;;;;;4988677;28;20594;-79
2023/06/22 04:35:04;;;;;;;12.23;7.78;;;18.20;99.90;;;;;;4988886;28;20034;-79
2023/06/22 04:37:30;;;;;;;16.88;7.50;;;18.30;99.90;;;;;;4988200;28;20034;-79
2023/06/22 04:39:55;;;;;;;15.18;7.95;;;18.30;99.90;;;;;;4987736;28;20037;-79
2023/06/22 04:42:21;;;;;;;16.23;6.55;;;18.40;99.90;;;;;;4986749;28;20033;-78
2023/06/22 04:44:46;;;;;;;17.48;6.65;;;18.40;99.90;;;;;;4986674;28;20041;-79
2023/06/22 04:47:12;;;;;;;17.48;8.65;;;18.50;99.90;;;;;;4987557;28;20038;-79
2023/06/22 04:49:37;;;;;;;12.95;7.75;;;18.50;99.90;;;;;;4986401;28;20095;-79
2023/06/22 04:52:05;;;;;;;13.27;7.25;;;18.60;99.90;;;;;;4989480;28;20038;-79
2023/06/22 04:54:34;;;;;;;12.50;7.25;;;18.70;99.90;;;;;;4986721;28;20409;-78
2023/06/22 04:57:00;;;;;;;15.23;7.22;;;18.80;99.90;;;;;;4988193;28;20049;-79
2023/06/22 04:59:30;;;;;;;16.98;7.00;;;18.80;99.90;;;;;;4984633;28;20030;-79
2023/06/22 05:02:00;;;;;;;18.83;7.03;;;18.90;99.90;;;;;;4986051;28;20030;-86
2023/06/22 05:04:27;;;;;;;11.63;6.85;;;19.00;99.90;;;;;;4986683;28;20062;-78
2023/06/22 05:06:54;;;;;;;13.80;6.25;;;19.10;99.90;;;;;;4985220;28;21779;-80
2023/06/22 05:09:21;;;;;;;13.90;6.80;;;19.20;99.90;;;;;;4984185;28;20022;-81
2023/06/22 05:11:46;;;;;;;15.02;7.47;;;19.30;99.90;;;;;;4985784;28;20515;-78
2023/06/22 05:14:12;;;;;;;12.43;6.63;;;19.40;99.90;;;;;;4985191;28;20033;-78
2023/06/22 05:16:39;;;;;;;14.15;6.25;;;19.50;99.90;;;;;;4983656;28;20574;-78
2023/06/22 05:19:04;;;;;;;17.73;6.78;;;19.50;99.90;;;;;;4983410;28;20034;-78
2023/06/22 05:21:31;;;;;;;20.55;7.55;;;19.60;99.90;;;;;;4982666;28;20391;-77
2023/06/22 05:24:00;;;;;;;16.42;7.82;;;19.70;99.90;;;;;;4983237;28;20108;-77
2023/06/22 05:26:26;;;;;;;13.77;7.05;;;19.80;99.90;;;;;;4982772;28;20575;-78
2023/06/22 05:28:52;;;;;;;12.95;6.63;;;19.90;99.90;;;;;;4984204;28;20080;-78
2023/06/22 05:31:19;;;;;;;19.92;7.90;;;20.00;99.90;;;;;;4982809;28;20129;-78
2023/06/22 05:33:45;;;;;;;17.48;7.40;;;20.10;99.90;;;;;;4982959;28;20219;-78
2023/06/22 05:36:11;;;;;;;21.42;7.80;;;20.20;99.90;;;;;;4981682;28;20510;-78
2023/06/22 05:38:37;;;;;;;17.13;6.75;;;20.30;99.90;;;;;;4976350;28;20030;-77
2023/06/22 05:41:02;;;;;;;19.15;8.02;;;20.40;99.90;;;;;;4982849;28;20034;-78
2023/06/22 05:43:28;;;;;;;14.00;7.60;;;20.60;99.90;;;;;;4982688;28;20035;-78
2023/06/22 05:45:53;;;;;;;18.15;7.88;;;20.70;99.90;;;;;;4977272;28;20042;-78
2023/06/22 05:48:19;;;;;;;26.23;8.88;;;20.80;99.90;;;;;;4976509;28;20057;-77
2023/06/22 05:50:45;;;;;;;18.10;7.60;;;20.90;99.90;;;;;;4972667;28;20042;-78
2023/06/22 05:53:10;;;;;;;18.88;7.25;;;21.00;99.90;;;;;;4979533;28;20030;-78
2023/06/22 05:55:36;;;;;;;23.48;7.47;;;21.10;99.90;;;;;;4974693;28;20062;-78
2023/06/22 05:58:03;;;;;;;16.40;6.97;;;21.20;99.90;;;;;;4978950;28;21431;-78
2023/06/22 06:00:29;;;;;;;20.23;7.25;;;21.30;99.90;;;;;;4973276;28;20503;-78
2023/06/22 06:02:54;;;;;;;22.02;7.43;;;21.50;99.90;;;;;;4974453;28;20035;-87
2023/06/22 06:05:20;;;;;;;18.08;7.15;;;21.60;99.90;;;;;;4974313;28;20080;-75
2023/06/22 06:07:46;;;;;;;15.23;6.80;;;21.70;99.90;;;;;;4980458;28;20046;-76
2023/06/22 06:10:12;;;;;;;18.33;7.45;;;21.90;99.90;;;;;;4979435;28;20101;-77
2023/06/22 06:12:38;;;;;;;16.05;7.63;;;22.00;99.90;;;;;;4980124;28;20029;-77
2023/06/22 06:15:04;;;;;;;15.70;6.75;;;22.10;99.90;;;;;;4981962;28;20045;-80
2023/06/22 06:17:30;;;;;;;11.52;7.20;;;22.30;99.90;;;;;;4985304;28;20085;-80
2023/06/22 06:19:56;;;;;;;15.70;7.07;;;22.40;99.90;;;;;;4982898;28;20038;-80
2023/06/22 06:22:23;;;;;;;20.60;8.45;;;22.50;99.90;;;;;;4982184;28;20499;-80
2023/06/22 06:24:49;;;;;;;16.33;7.85;;;22.60;99.90;;;;;;4982914;28;20394;-78
2023/06/22 06:27:15;;;;;;;18.50;7.63;;;22.60;99.90;;;;;;4981249;28;20118;-82
2023/06/22 06:29:40;;;;;;;18.67;7.80;;;22.70;99.90;;;;;;4980654;28;20092;-78
2023/06/22 06:32:06;;;;;;;14.85;6.80;;;22.70;99.90;;;;;;4982083;28;20045;-78
2023/06/22 06:34:32;;;;;;;13.88;7.95;;;22.80;99.90;;;;;;4984388;28;20141;-78
2023/06/22 06:36:57;;;;;;;19.15;7.57;;;22.90;99.90;;;;;;4981423;28;20033;-80
2023/06/22 06:39:24;;;;;;;17.73;7.78;;;22.90;99.90;;;;;;4983198;28;20487;-78
2023/06/22 06:41:49;;;;;;;21.98;7.38;;;23.00;99.90;;;;;;4981825;28;20034;-78
2023/06/22 06:44:15;;;;;;;14.82;7.75;;;23.10;99.90;;;;;;4979510;28;20489;-85
2023/06/22 06:46:41;;;;;;;16.15;7.53;;;23.20;99.90;;;;;;4977418;28;20042;-79
2023/06/22 06:49:07;;;;;;;17.23;7.20;;;23.20;99.90;;;;;;4983296;28;20688;-78
2023/06/22 06:51:32;;;;;;;16.10;7.40;;;23.30;99.90;;;;;;4986587;28;20038;-78
2023/06/22 06:53:58;;;;;;;16.15;7.90;;;23.30;99.90;;;;;;4983235;28;20026;-78
2023/06/22 06:56:24;;;;;;;16.65;7.13;;;23.40;99.90;;;;;;4982871;28;20026;-78
2023/06/22 06:58:50;;;;;;;16.85;7.13;;;23.60;99.90;;;;;;4984615;28;20140;-78
2023/06/22 07:01:16;;;;;;;16.05;7.78;;;23.60;99.90;;;;;;4982442;28;20061;-78
2023/06/22 07:03:42;;;;;;;14.73;7.15;;;23.60;99.90;;;;;;4986186;28;20121;-79
2023/06/22 07:06:08;;;;;;;22.58;7.63;;;23.70;99.90;;;;;;4986256;28;20034;-78
2023/06/22 07:08:36;;;;;;;13.43;7.82;;;23.90;99.90;;;;;;4986813;28;20169;-79
2023/06/22 07:11:01;;;;;;;15.50;7.40;;;23.90;99.90;;;;;;4984730;28;20038;-78
2023/06/22 07:13:27;;;;;;;16.48;6.55;;;24.00;99.90;;;;;;4983948;28;20096;-78
2023/06/22 07:15:53;;;;;;;13.35;6.75;;;24.20;99.90;;;;;;4985790;28;20137;-78
2023/06/22 07:18:18;;;;;;;14.38;6.68;;;24.30;99.90;;;;;;4985819;28;20041;-80
2023/06/22 07:20:44;;;;;;;16.45;6.97;;;24.40;99.90;;;;;;4985762;28;20960;-80
2023/06/22 07:23:09;;;;;;;19.02;7.50;;;24.60;99.90;;;;;;4986902;28;20031;-79
2023/06/22 07:25:35;;;;;;;19.13;7.88;;;24.60;99.90;;;;;;4986084;28;20037;-79
2023/06/22 07:28:05;;;;;;;20.02;7.97;;;24.70;99.90;;;;;;4983887;28;20046;-79
2023/06/22 07:30:32;;;;;;;16.20;6.75;;;24.70;99.90;;;;;;4967434;28;20038;-79
2023/06/22 07:32:58;;;;;;;16.95;7.43;;;24.70;99.90;;;;;;4985130;28;20038;-79
2023/06/22 07:35:24;;;;;;;16.35;7.28;;;24.70;99.90;;;;;;4986509;28;20038;-79
2023/06/22 07:37:50;;;;;;;14.98;7.00;;;24.80;99.90;;;;;;4987856;28;20117;-83
2023/06/22 07:40:15;;;;;;;20.88;7.82;;;24.90;99.90;;;;;;4990585;28;20034;-87
2023/06/22 07:42:41;;;;;;;17.85;7.32;;;24.90;99.90;;;;;;4985138;28;20027;-77
2023/06/22 07:45:08;;;;;;;19.00;7.97;;;25.00;99.90;;;;;;4985662;28;20037;-78
2023/06/22 07:47:35;;;;;;;17.02;7.22;;;25.10;99.90;;;;;;4984093;28;20078;-78
2023/06/22 07:50:01;;;;;;;22.10;8.23;;;25.10;99.90;;;;;;4986494;28;20031;-79
2023/06/22 07:52:30;;;;;;;18.65;7.03;;;25.20;99.90;;;;;;4985671;28;20045;-80
2023/06/22 07:54:56;;;;;;;16.10;6.90;;;25.20;99.90;;;;;;4986529;28;20026;-80
2023/06/22 07:57:22;;;;;;;19.42;7.18;;;25.30;99.90;;;;;;4985318;28;20038;-80
2023/06/22 07:59:47;;;;;;;23.30;7.32;;;25.40;99.90;;;;;;4986975;28;20096;-80
2023/06/22 08:02:13;;;;;;;15.93;7.53;;;25.40;99.90;;;;;;4986685;28;20029;-80
2023/06/22 08:04:39;;;;;;;18.52;7.70;;;25.60;99.90;;;;;;4989048;28;20451;-79
2023/06/22 08:07:05;;;;;;;17.08;6.82;;;25.60;99.90;;;;;;4986812;28;20042;-79
2023/06/22 08:09:32;;;;;;;12.65;6.72;;;25.60;99.90;;;;;;4991306;28;20085;-79
2023/06/22 08:11:58;;;;;;;14.48;7.07;;;25.80;99.90;;;;;;4987657;28;20054;-79
2023/06/22 08:14:27;;;;;;;16.17;6.30;;;25.90;99.90;;;;;;4987709;28;20056;-78
2023/06/22 08:16:53;;;;;;;16.23;7.30;;;26.00;99.90;;;;;;4975817;28;20034;-80
2023/06/22 08:19:18;;;;;;;18.90;6.95;;;26.10;99.90;;;;;;4980987;28;20982;-79
2023/06/22 08:21:44;;;;;;;20.38;7.35;;;26.10;99.90;;;;;;4980005;28;20030;-79
2023/06/22 08:24:09;;;;;;;15.93;6.78;;;26.20;99.90;;;;;;4982611;28;21678;-81
2023/06/22 08:26:37;;;;;;;14.23;7.07;;;26.40;99.90;;;;;;4979263;28;20038;-80
2023/06/22 08:29:03;;;;;;;19.35;7.35;;;26.50;99.90;;;;;;4981498;28;20041;-80
2023/06/22 08:31:30;;;;;;;16.63;7.43;;;26.60;99.90;;;;;;4982242;28;20029;-81
2023/06/22 08:33:56;;;;;;;15.40;6.65;;;26.60;99.90;;;;;;4980434;28;20026;-81
2023/06/22 08:36:21;;;;;;;17.58;6.97;;;26.70;99.90;;;;;;4987061;28;21435;-81
2023/06/22 08:38:51;;;;;;;19.15;7.43;;;26.70;99.90;;;;;;4987942;28;20031;-87
2023/06/22 08:41:17;;;;;;;20.33;7.68;;;26.60;99.90;;;;;;4987385;28;20470;-81
2023/06/22 08:43:44;;;;;;;19.45;7.45;;;26.50;99.90;;;;;;4987213;28;20045;-80
2023/06/22 08:46:10;;;;;;;17.27;7.40;;;26.60;99.90;;;;;;4985309;28;21346;-80
2023/06/22 08:48:36;;;;;;;17.73;7.95;;;26.70;99.90;;;;;;4984960;28;20045;-79
2023/06/22 08:51:02;;;;;;;14.95;7.50;;;26.70;99.90;;;;;;4987726;28;20034;-81
2023/06/22 08:53:27;;;;;;;21.20;7.13;;;26.80;99.90;;;;;;4988760;28;20084;-81
2023/06/22 08:55:53;;;;;;;18.27;7.25;;;27.00;99.90;;;;;;4985400;28;20141;-84
2023/06/22 08:58:20;;;;;;;15.75;6.75;;;27.10;99.90;;;;;;4983636;28;20418;-81
2023/06/22 09:00:45;;;;;;;19.67;6.97;;;27.20;99.90;;;;;;4984266;28;20029;-78
2023/06/22 09:03:11;;;;;;;16.88;6.68;;;27.30;99.90;;;;;;4984646;28;20510;-79
2023/06/22 09:05:37;;;;;;;23.83;7.60;;;27.40;99.90;;;;;;4981934;28;20041;-78
2023/06/22 09:08:03;;;;;;;17.02;6.82;;;27.50;99.90;;;;;;4985666;28;20076;-78
2023/06/22 09:10:28;;;;;;;18.45;7.20;;;27.70;99.90;;;;;;4981786;28;20651;-78
2023/06/22 09:12:54;;;;;;;17.00;7.28;;;27.80;99.90;;;;;;4983420;28;20034;-78
2023/06/22 09:15:20;;;;;;;21.35;7.07;;;27.90;99.90;;;;;;4984268;28;20022;-77
2023/06/22 09:17:46;;;;;;;16.70;7.15;;;28.00;99.90;;;;;;4983430;28;20037;-78
2023/06/22 09:20:12;;;;;;;19.70;7.63;;;28.10;99.90;;;;;;4983827;28;20046;-79
2023/06/22 09:22:37;;;;;;;15.60;6.93;;;28.10;99.90;;;;;;4982332;28;20037;-79
2023/06/22 09:25:03;;;;;;;21.30;7.22;;;28.20;99.90;;;;;;4983328;28;20029;-79
2023/06/22 09:27:29;;;;;;;23.75;7.97;;;28.40;99.90;;;;;;4984369;28;20046;-79
2023/06/22 09:29:54;;;;;;;18.88;7.15;;;28.50;99.90;;;;;;4985172;28;20125;-78
2023/06/22 09:32:20;;;;;;;20.45;7.05;;;28.60;99.90;;;;;;4984613;28;20030;-77
2023/06/22 09:34:45;;;;;;;16.27;6.50;;;28.80;99.90;;;;;;4983758;28;20458;-78
2023/06/22 09:37:12;;;;;;;17.98;7.05;;;29.00;99.90;;;;;;4982397;28;20144;-79
2023/06/22 09:39:37;;;;;;;22.15;8.30;;;29.10;99.90;;;;;;4983057;28;20136;-79
2023/06/22 09:42:05;;;;;;;15.23;6.43;;;29.30;99.90;;;;;;4984137;28;20042;-80
2023/06/22 09:44:30;;;;;;;17.60;7.38;;;29.40;99.90;;;;;;4985671;28;20034;-79
2023/06/22 09:46:57;;;;;;;16.40;6.40;;;29.60;99.90;;;;;;4985993;28;20061;-79
2023/06/22 09:49:23;;;;;;;21.00;7.22;;;29.90;99.90;;;;;;4984692;28;20026;-80
2023/06/22 09:51:49;;;;;;;16.95;7.07;;;30.20;99.90;;;;;;4984798;28;20046;-79
2023/06/22 09:54:15;;;;;;;17.98;6.57;;;30.40;99.90;;;;;;4986107;28;20042;-80
2023/06/22 09:56:40;;;;;;;18.25;6.75;;;30.70;99.90;;;;;;4985766;28;20034;-79
2023/06/22 09:59:06;;;;;;;17.60;6.20;;;30.90;99.90;;;;;;4985458;28;20597;-79
2023/06/22 10:01:31;;;;;;;19.70;6.97;;;31.00;99.90;;;;;;4985975;28;20026;-79
2023/06/22 10:03:58;;;;;;;18.08;6.53;;;31.10;99.90;;;;;;4983778;28;20114;-80
2023/06/22 10:06:24;;;;;;;19.63;6.85;;;31.20;99.90;;;;;;4984044;28;20682;-80
2023/06/22 10:08:51;;;;;;;20.58;7.00;;;31.50;99.90;;;;;;4987296;28;20042;-81
2023/06/22 10:11:16;;;;;;;17.40;6.63;;;31.70;99.90;;;;;;4984919;28;20030;-81
2023/06/22 10:13:42;;;;;;;20.83;6.75;;;31.90;99.90;;;;;;4984794;28;20041;-80
2023/06/22 10:16:08;;;;;;;16.65;6.03;;;32.10;99.90;;;;;;4984827;28;20034;-81
2023/06/22 10:18:33;;;;;;;22.10;5.95;;;32.40;99.90;;;;;;4987777;28;20067;-81
2023/06/22 10:20:59;;;;;;;15.15;5.65;;;32.40;99.90;;;;;;4986478;28;20125;-80
2023/06/22 10:23:25;;;;;;;22.35;6.72;;;32.60;99.90;;;;;;4985547;28;20027;-80
2023/06/22 10:25:51;;;;;;;16.35;6.10;;;32.70;99.90;;;;;;4984703;28;20034;-81
2023/06/22 10:28:16;;;;;;;20.85;5.95;;;32.70;99.90;;;;;;4983735;28;20038;-81
2023/06/22 10:30:42;;;;;;;17.73;6.72;;;32.80;99.90;;;;;;4984617;28;20104;-80
2023/06/22 10:33:08;;;;;;;19.92;6.13;;;32.90;99.90;;;;;;4984949;28;20048;-80
2023/06/22 10:35:34;;;;;;;16.27;6.13;;;33.00;99.90;;;;;;4985914;28;20030;-84
2023/06/22 10:38:00;;;;;;;21.52;6.45;;;33.20;99.90;;;;;;4989507;28;20050;-82
2023/06/22 10:40:26;;;;;;;15.80;5.72;;;33.30;99.90;;;;;;4991938;28;20022;-83
2023/06/22 10:42:51;;;;;;;18.63;6.90;;;33.40;99.90;;;;;;4987841;28;20026;-82
2023/06/22 10:45:17;;;;;;;15.00;5.95;;;33.40;99.90;;;;;;4991102;28;20027;-83
2023/06/22 10:47:43;;;;;;;17.13;6.22;;;33.70;99.90;;;;;;4989882;28;20052;-83
2023/06/22 10:50:08;;;;;;;20.85;5.82;;;33.70;99.90;;;;;;4990964;28;20030;-84
2023/06/22 10:52:34;;;;;;;15.25;6.18;;;33.90;99.90;;;;;;4985942;28;20042;-85
2023/06/22 10:55:00;;;;;;;18.65;6.38;;;33.90;99.90;;;;;;4984233;28;20052;-82
2023/06/22 10:57:25;;;;;;;20.60;6.50;;;33.70;99.90;;;;;;4984673;28;20149;-80
2023/06/22 10:59:51;;;;;;;14.88;5.95;;;33.50;99.90;;;;;;4987622;28;20037;-81
2023/06/22 11:02:16;;;;;;;17.98;5.97;;;33.30;99.90;;;;;;4988430;28;20029;-81
2023/06/22 11:04:42;;;;;;;21.27;6.82;;;33.20;99.90;;;;;;4987072;28;20034;-81
2023/06/22 11:07:08;;;;;;;18.13;6.55;;;33.00;99.90;;;;;;4984409;28;20173;-81
2023/06/22 11:09:34;;;;;;;19.10;6.40;;;33.00;99.90;;;;;;4982706;28;20025;-80
2023/06/22 11:12:00;;;;;;;20.05;6.70;;;33.00;99.90;;;;;;4984832;28;20034;-81
2023/06/22 11:14:25;;;;;;;23.38;6.45;;;33.20;99.90;;;;;;4985288;28;20045;-81
2023/06/22 11:16:51;;;;;;;17.98;5.47;;;33.30;99.90;;;;;;4983199;28;20128;-80
2023/06/22 11:19:17;;;;;;;22.73;6.93;;;33.50;99.90;;;;;;4984086;28;20031;-80
2023/06/22 11:21:43;;;;;;;19.60;7.05;;;33.60;99.90;;;;;;4985679;28;20026;-80
2023/06/22 11:24:09;;;;;;;20.65;6.05;;;33.70;99.90;;;;;;4986604;28;20037;-78
2023/06/22 11:26:35;;;;;;;17.90;6.10;;;33.90;99.90;;;;;;4976210;28;20080;-80
2023/06/22 11:29:00;;;;;;;26.48;6.88;;;34.20;99.90;;;;;;4981348;28;20039;-80
2023/06/22 11:31:26;;;;;;;22.58;6.72;;;34.60;99.90;;;;;;4982344;28;20088;-80
2023/06/22 11:33:51;;;;;;;19.40;6.43;;;34.80;99.90;;;;;;4984356;28;20671;-79
2023/06/22 11:36:17;;;;;;;20.90;6.00;;;34.90;99.30;;;;;;4988058;28;21450;-81
2023/06/22 11:38:43;;;;;;;20.50;6.57;;;35.00;99.70;;;;;;4986395;28;20514;-80
2023/06/22 11:41:10;;;;;;;17.90;6.32;;;35.20;98.90;;;;;;4988471;28;20402;-81
2023/06/22 11:43:36;;;;;;;24.48;6.68;;;35.30;98.80;;;;;;4985973;28;20026;-81
2023/06/22 11:46:03;;;;;;;15.73;6.40;;;35.40;98.50;;;;;;4985394;28;20080;-81
2023/06/22 11:48:29;;;;;;;17.20;6.45;;;35.60;97.50;;;;;;4986611;28;20127;-80
2023/06/22 11:50:55;;;;;;;18.77;6.45;;;35.80;97.90;;;;;;4985828;28;20038;-79
2023/06/22 11:53:21;;;;;;;18.20;6.15;;;36.10;97.70;;;;;;4986691;28;20030;-80
2023/06/22 11:55:47;;;;;;;24.15;6.50;;;36.50;96.90;;;;;;4987665;28;20044;-80
2023/06/22 11:58:13;;;;;;;19.55;6.85;;;36.70;96.20;;;;;;4986800;28;20038;-79
2023/06/22 12:00:38;;;;;;;17.80;6.28;;;37.00;94.60;;;;;;4980184;28;20975;-77
2023/06/22 12:03:04;;;;;;;12.35;6.03;;;37.10;93.90;;;;;;4985461;28;20037;-77
2023/06/22 12:05:29;;;;;;;23.48;6.85;;;36.80;94.50;;;;;;4984716;28;20033;-77
2023/06/22 12:07:55;;;;;;;15.88;5.97;;;36.80;94.60;;;;;;4983772;28;20043;-76
2023/06/22 12:10:22;;;;;;;20.55;7.07;;;36.80;93.20;;;;;;4986993;28;20371;-77
2023/06/22 12:12:47;;;;;;;14.93;6.28;;;36.80;92.80;;;;;;4986470;28;20030;-77
2023/06/22 12:15:13;;;;;;;19.38;6.13;;;36.50;93.30;;;;;;4985075;28;20510;-77
2023/06/22 12:17:38;;;;;;;21.25;6.93;;;36.30;93.40;;;;;;4985397;28;20718;-76
2023/06/22 12:20:05;;;;;;;15.20;6.22;;;36.10;93.20;;;;;;4983783;28;20049;-77
2023/06/22 12:22:32;;;;;;;22.33;6.20;;;35.90;93.50;;;;;;4985659;28;20030;-76
2023/06/22 12:24:57;;;;;;;19.30;6.25;;;35.90;93.50;;;;;;4985709;28;20106;-76
2023/06/22 12:27:23;;;;;;;20.23;6.40;;;35.80;94.60;;;;;;4984225;28;20045;-76
2023/06/22 12:29:49;;;;;;;15.30;5.90;;;36.00;94.10;;;;;;4986674;28;20029;-76
2023/06/22 12:32:14;;;;;;;17.73;6.75;;;36.40;94.00;;;;;;4981880;28;20069;-76
2023/06/22 12:34:42;;;;;;;19.38;6.18;;;36.70;93.20;;;;;;4982470;28;21298;-75